This is the latest recevied weather packets stored in our database for station/object IU2EVW-13. If no packets are shown the sender has not sent any weather packets the latest 10 day(s).
| Time | Temp. | Humidity | Pressure | Rain* | Wind** | Luminosity | Snow |
|---|---|---|---|---|---|---|---|
| 1787399110 | 25.56° C | 34% | 1016.8 hPa | - | - | - | - |
| 1787397909 | 24.44° C | 38% | 1017.1 hPa | - | - | - | - |
| 1787396707 | 23.89° C | 39% | 1017.2 hPa | - | - | - | - |
| 1787395506 | 23.33° C | 40% | 1017.2 hPa | - | - | - | - |
| 1787394305 | 22.78° C | 49% | 1017.4 hPa | - | - | - | - |
| 1787393104 | 21.11° C | 55% | 1017.5 hPa | - | - | - | - |
| 1787391903 | 20° C | 56% | 1017.8 hPa | - | - | - | - |
| 1787390701 | 18.89° C | 63% | 1017.9 hPa | - | - | - | - |
| 1787389500 | 18.33° C | 62% | 1018 hPa | - | - | - | - |
| 1787388299 | 17.22° C | 65% | 1018 hPa | - | - | - | - |
| 1787387098 | 16.67° C | 73% | 1017.8 hPa | - | - | - | - |
| 1787385896 | 16.67° C | 74% | 1017.7 hPa | - | - | - | - |
| 1787384695 | 16.11° C | 74% | 1017.6 hPa | - | - | - | - |
| 1787383494 | 16.11° C | 72% | 1017.7 hPa | - | - | - | - |
| 1787382293 | 15.56° C | 73% | 1017.6 hPa | - | - | - | - |
| 1787381091 | 14.44° C | 81% | 1017.6 hPa | - | - | - | - |
| 1787379890 | 14.44° C | 76% | 1017.5 hPa | - | - | - | - |
| 1787378689 | 13.89° C | 79% | 1017.3 hPa | - | - | - | - |
| 1787377487 | 13.33° C | 82% | 1017.2 hPa | - | - | - | - |
| 1787376286 | 13.33° C | 83% | 1017 hPa | - | - | - | - |
| 1787375085 | 12.78° C | 85% | 1016.8 hPa | - | - | - | - |
| 1787373884 | 12.78° C | 83% | 1016.7 hPa | - | - | - | - |
| 1787372681 | 12.78° C | 82% | 1016.5 hPa | - | - | - | - |
| 1787371479 | 12.78° C | 84% | 1016.2 hPa | - | - | - | - |
| 1787370278 | 12.78° C | 84% | 1016.3 hPa | - | - | - | - |
* Rain since midnight (hover to see other rain measurements)
** Current wind speed in m/s (hover to see current wind gust speed)